sensor_id;sensor_type;location;lat;lon;timestamp;P1;durP1;ratioP1;P2;durP2;ratioP2
70337;SDS011;57757;53.198;19.646;2024-01-30T00:00:41;35.00;;;13.50;;
70337;SDS011;57757;53.198;19.646;2024-01-30T00:03:29;36.80;;;13.20;;
70337;SDS011;57757;53.198;19.646;2024-01-30T00:05:57;34.10;;;13.40;;
70337;SDS011;57757;53.198;19.646;2024-01-30T00:08:26;38.50;;;14.00;;
70337;SDS011;57757;53.198;19.646;2024-01-30T00:10:54;33.90;;;13.00;;
70337;SDS011;57757;53.198;19.646;2024-01-30T00:13:21;33.50;;;12.80;;
70337;SDS011;57757;53.198;19.646;2024-01-30T00:15:50;42.00;;;13.70;;
70337;SDS011;57757;53.198;19.646;2024-01-30T00:18:17;39.70;;;14.80;;
70337;SDS011;57757;53.198;19.646;2024-01-30T00:20:46;39.50;;;14.10;;
70337;SDS011;57757;53.198;19.646;2024-01-30T00:23:13;36.40;;;13.90;;
70337;SDS011;57757;53.198;19.646;2024-01-30T00:25:41;33.70;;;14.20;;
70337;SDS011;57757;53.198;19.646;2024-01-30T00:28:08;34.00;;;13.20;;
70337;SDS011;57757;53.198;19.646;2024-01-30T00:30:36;35.90;;;13.80;;
70337;SDS011;57757;53.198;19.646;2024-01-30T00:33:03;35.00;;;13.40;;
70337;SDS011;57757;53.198;19.646;2024-01-30T00:35:32;38.60;;;13.00;;
70337;SDS011;57757;53.198;19.646;2024-01-30T00:37:59;30.50;;;11.80;;
70337;SDS011;57757;53.198;19.646;2024-01-30T00:40:27;31.90;;;12.80;;
70337;SDS011;57757;53.198;19.646;2024-01-30T00:42:54;35.70;;;14.50;;
70337;SDS011;57757;53.198;19.646;2024-01-30T00:45:22;34.90;;;13.20;;
70337;SDS011;57757;53.198;19.646;2024-01-30T00:47:49;39.80;;;15.50;;
70337;SDS011;57757;53.198;19.646;2024-01-30T00:50:17;30.80;;;14.10;;
70337;SDS011;57757;53.198;19.646;2024-01-30T00:52:45;35.20;;;14.50;;
70337;SDS011;57757;53.198;19.646;2024-01-30T00:55:13;34.40;;;12.90;;
70337;SDS011;57757;53.198;19.646;2024-01-30T00:57:41;29.90;;;12.00;;
70337;SDS011;57757;53.198;19.646;2024-01-30T01:00:13;31.70;;;13.60;;
70337;SDS011;57757;53.198;19.646;2024-01-30T01:02:44;33.20;;;13.00;;
70337;SDS011;57757;53.198;19.646;2024-01-30T01:05:12;32.80;;;12.10;;
70337;SDS011;57757;53.198;19.646;2024-01-30T01:07:39;31.40;;;11.20;;
70337;SDS011;57757;53.198;19.646;2024-01-30T01:10:07;32.90;;;12.90;;
70337;SDS011;57757;53.198;19.646;2024-01-30T01:12:36;31.30;;;12.00;;
70337;SDS011;57757;53.198;19.646;2024-01-30T01:15:03;33.90;;;13.10;;
70337;SDS011;57757;53.198;19.646;2024-01-30T01:17:32;34.30;;;12.50;;
70337;SDS011;57757;53.198;19.646;2024-01-30T01:19:59;34.80;;;12.50;;
70337;SDS011;57757;53.198;19.646;2024-01-30T01:22:27;32.90;;;11.50;;
70337;SDS011;57757;53.198;19.646;2024-01-30T01:24:55;30.90;;;11.30;;
70337;SDS011;57757;53.198;19.646;2024-01-30T01:27:22;28.00;;;12.30;;
70337;SDS011;57757;53.198;19.646;2024-01-30T01:29:50;32.10;;;11.60;;
70337;SDS011;57757;53.198;19.646;2024-01-30T01:32:18;29.50;;;11.70;;
70337;SDS011;57757;53.198;19.646;2024-01-30T01:34:46;29.10;;;11.20;;
70337;SDS011;57757;53.198;19.646;2024-01-30T01:37:13;29.50;;;11.40;;
70337;SDS011;57757;53.198;19.646;2024-01-30T01:39:41;29.00;;;11.80;;
70337;SDS011;57757;53.198;19.646;2024-01-30T01:42:09;29.70;;;11.10;;
70337;SDS011;57757;53.198;19.646;2024-01-30T01:44:36;28.90;;;11.70;;
70337;SDS011;57757;53.198;19.646;2024-01-30T01:47:04;28.90;;;11.90;;
70337;SDS011;57757;53.198;19.646;2024-01-30T01:49:31;30.00;;;12.00;;
70337;SDS011;57757;53.198;19.646;2024-01-30T01:51:59;29.80;;;11.10;;
70337;SDS011;57757;53.198;19.646;2024-01-30T01:54:27;31.50;;;11.70;;
70337;SDS011;57757;53.198;19.646;2024-01-30T01:56:56;30.30;;;10.60;;
70337;SDS011;57757;53.198;19.646;2024-01-30T01:59:24;30.50;;;11.70;;
70337;SDS011;57757;53.198;19.646;2024-01-30T02:01:54;31.70;;;11.50;;
70337;SDS011;57757;53.198;19.646;2024-01-30T02:04:23;28.60;;;11.20;;
70337;SDS011;57757;53.198;19.646;2024-01-30T02:06:50;29.90;;;11.70;;
70337;SDS011;57757;53.198;19.646;2024-01-30T02:09:19;26.30;;;10.70;;
70337;SDS011;57757;53.198;19.646;2024-01-30T02:11:46;32.70;;;12.00;;
70337;SDS011;57757;53.198;19.646;2024-01-30T02:14:14;30.80;;;11.90;;
70337;SDS011;57757;53.198;19.646;2024-01-30T02:16:42;28.30;;;11.50;;
70337;SDS011;57757;53.198;19.646;2024-01-30T02:19:10;25.20;;;10.10;;
70337;SDS011;57757;53.198;19.646;2024-01-30T02:21:38;31.20;;;12.20;;
70337;SDS011;57757;53.198;19.646;2024-01-30T02:24:06;30.80;;;11.60;;
70337;SDS011;57757;53.198;19.646;2024-01-30T02:26:34;36.00;;;13.20;;
70337;SDS011;57757;53.198;19.646;2024-01-30T02:29:01;32.20;;;10.90;;
70337;SDS011;57757;53.198;19.646;2024-01-30T02:31:29;30.70;;;12.00;;
70337;SDS011;57757;53.198;19.646;2024-01-30T02:33:56;31.60;;;11.80;;
70337;SDS011;57757;53.198;19.646;2024-01-30T02:36:24;31.60;;;11.80;;
70337;SDS011;57757;53.198;19.646;2024-01-30T02:38:52;31.50;;;12.90;;
70337;SDS011;57757;53.198;19.646;2024-01-30T02:41:19;25.80;;;10.80;;
70337;SDS011;57757;53.198;19.646;2024-01-30T02:43:47;30.80;;;12.20;;
70337;SDS011;57757;53.198;19.646;2024-01-30T02:46:15;28.10;;;11.60;;
70337;SDS011;57757;53.198;19.646;2024-01-30T02:48:42;27.90;;;11.10;;
70337;SDS011;57757;53.198;19.646;2024-01-30T02:51:10;29.20;;;10.90;;
70337;SDS011;57757;53.198;19.646;2024-01-30T02:53:37;32.50;;;11.70;;
70337;SDS011;57757;53.198;19.646;2024-01-30T02:56:05;28.50;;;11.40;;
70337;SDS011;57757;53.198;19.646;2024-01-30T02:58:33;28.40;;;11.50;;
70337;SDS011;57757;53.198;19.646;2024-01-30T03:01:00;31.10;;;10.60;;
70337;SDS011;57757;53.198;19.646;2024-01-30T03:03:28;32.10;;;11.20;;
70337;SDS011;57757;53.198;19.646;2024-01-30T03:05:56;32.10;;;12.40;;
70337;SDS011;57757;53.198;19.646;2024-01-30T03:08:23;31.10;;;11.70;;
70337;SDS011;57757;53.198;19.646;2024-01-30T03:10:51;31.50;;;11.20;;
70337;SDS011;57757;53.198;19.646;2024-01-30T03:13:18;31.50;;;10.60;;
70337;SDS011;57757;53.198;19.646;2024-01-30T03:15:46;34.10;;;11.70;;
70337;SDS011;57757;53.198;19.646;2024-01-30T03:18:14;31.80;;;10.10;;
70337;SDS011;57757;53.198;19.646;2024-01-30T03:20:41;28.70;;;11.00;;
70337;SDS011;57757;53.198;19.646;2024-01-30T03:23:09;28.40;;;10.50;;
70337;SDS011;57757;53.198;19.646;2024-01-30T03:25:36;25.50;;;10.90;;
70337;SDS011;57757;53.198;19.646;2024-01-30T03:28:04;28.70;;;10.40;;
70337;SDS011;57757;53.198;19.646;2024-01-30T03:30:32;24.60;;;10.50;;
70337;SDS011;57757;53.198;19.646;2024-01-30T03:32:59;28.20;;;10.40;;
70337;SDS011;57757;53.198;19.646;2024-01-30T03:35:27;28.10;;;10.40;;
70337;SDS011;57757;53.198;19.646;2024-01-30T03:37:54;26.70;;;10.00;;
70337;SDS011;57757;53.198;19.646;2024-01-30T03:40:23;28.70;;;10.80;;
70337;SDS011;57757;53.198;19.646;2024-01-30T03:42:50;28.40;;;11.10;;
70337;SDS011;57757;53.198;19.646;2024-01-30T03:45:18;26.50;;;10.10;;
70337;SDS011;57757;53.198;19.646;2024-01-30T03:47:46;31.50;;;11.90;;
70337;SDS011;57757;53.198;19.646;2024-01-30T03:50:14;27.50;;;10.00;;
70337;SDS011;57757;53.198;19.646;2024-01-30T03:52:42;26.10;;;9.90;;
70337;SDS011;57757;53.198;19.646;2024-01-30T03:55:09;27.70;;;10.60;;
70337;SDS011;57757;53.198;19.646;2024-01-30T03:57:37;29.50;;;10.80;;
70337;SDS011;57757;53.198;19.646;2024-01-30T04:00:04;66.30;;;19.10;;
70337;SDS011;57757;53.198;19.646;2024-01-30T04:02:33;38.90;;;13.50;;
70337;SDS011;57757;53.198;19.646;2024-01-30T04:05:00;31.20;;;11.90;;
70337;SDS011;57757;53.198;19.646;2024-01-30T04:07:28;25.00;;;10.00;;
70337;SDS011;57757;53.198;19.646;2024-01-30T04:09:56;27.90;;;10.40;;
70337;SDS011;57757;53.198;19.646;2024-01-30T04:12:24;25.80;;;10.40;;
70337;SDS011;57757;53.198;19.646;2024-01-30T04:14:52;25.80;;;10.50;;
70337;SDS011;57757;53.198;19.646;2024-01-30T04:17:20;25.20;;;10.50;;
70337;SDS011;57757;53.198;19.646;2024-01-30T04:19:47;27.20;;;10.40;;
70337;SDS011;57757;53.198;19.646;2024-01-30T04:22:15;28.00;;;10.40;;
70337;SDS011;57757;53.198;19.646;2024-01-30T04:24:43;26.00;;;10.40;;
70337;SDS011;57757;53.198;19.646;2024-01-30T04:27:10;26.30;;;10.00;;
70337;SDS011;57757;53.198;19.646;2024-01-30T04:29:38;26.80;;;9.90;;
70337;SDS011;57757;53.198;19.646;2024-01-30T04:32:06;26.20;;;10.40;;
70337;SDS011;57757;53.198;19.646;2024-01-30T04:34:33;25.80;;;10.60;;
70337;SDS011;57757;53.198;19.646;2024-01-30T04:37:01;25.20;;;9.60;;
70337;SDS011;57757;53.198;19.646;2024-01-30T04:39:28;27.90;;;9.50;;
70337;SDS011;57757;53.198;19.646;2024-01-30T04:41:56;24.40;;;9.30;;
70337;SDS011;57757;53.198;19.646;2024-01-30T04:44:23;25.30;;;10.20;;
70337;SDS011;57757;53.198;19.646;2024-01-30T04:46:51;26.50;;;9.90;;
70337;SDS011;57757;53.198;19.646;2024-01-30T04:49:18;25.00;;;9.70;;
70337;SDS011;57757;53.198;19.646;2024-01-30T04:51:46;23.90;;;9.30;;
70337;SDS011;57757;53.198;19.646;2024-01-30T04:54:14;25.30;;;9.20;;
70337;SDS011;57757;53.198;19.646;2024-01-30T04:56:42;29.50;;;9.70;;
70337;SDS011;57757;53.198;19.646;2024-01-30T04:59:09;28.50;;;10.00;;
70337;SDS011;57757;53.198;19.646;2024-01-30T05:01:37;26.50;;;10.20;;
70337;SDS011;57757;53.198;19.646;2024-01-30T05:04:07;22.60;;;10.00;;
70337;SDS011;57757;53.198;19.646;2024-01-30T05:06:35;24.70;;;8.20;;
70337;SDS011;57757;53.198;19.646;2024-01-30T05:09:02;23.50;;;9.40;;
70337;SDS011;57757;53.198;19.646;2024-01-30T05:11:39;26.50;;;9.10;;
70337;SDS011;57757;53.198;19.646;2024-01-30T05:14:08;23.10;;;9.90;;
70337;SDS011;57757;53.198;19.646;2024-01-30T05:16:36;22.70;;;9.50;;
70337;SDS011;57757;53.198;19.646;2024-01-30T05:19:04;23.90;;;9.40;;
70337;SDS011;57757;53.198;19.646;2024-01-30T05:21:32;27.00;;;9.80;;
70337;SDS011;57757;53.198;19.646;2024-01-30T05:24:00;25.20;;;9.70;;
70337;SDS011;57757;53.198;19.646;2024-01-30T05:26:27;24.80;;;10.50;;
70337;SDS011;57757;53.198;19.646;2024-01-30T05:28:55;27.30;;;9.20;;
70337;SDS011;57757;53.198;19.646;2024-01-30T05:31:22;23.50;;;9.30;;
70337;SDS011;57757;53.198;19.646;2024-01-30T05:33:50;21.30;;;8.60;;
70337;SDS011;57757;53.198;19.646;2024-01-30T05:36:18;29.10;;;10.80;;
70337;SDS011;57757;53.198;19.646;2024-01-30T05:38:46;26.70;;;9.50;;
70337;SDS011;57757;53.198;19.646;2024-01-30T05:41:13;24.90;;;9.10;;
70337;SDS011;57757;53.198;19.646;2024-01-30T05:43:41;21.10;;;8.80;;
70337;SDS011;57757;53.198;19.646;2024-01-30T05:46:09;27.90;;;10.40;;
70337;SDS011;57757;53.198;19.646;2024-01-30T05:48:37;26.20;;;9.50;;
70337;SDS011;57757;53.198;19.646;2024-01-30T05:51:04;32.20;;;10.50;;
70337;SDS011;57757;53.198;19.646;2024-01-30T05:53:32;28.90;;;10.50;;
70337;SDS011;57757;53.198;19.646;2024-01-30T05:56:03;42.90;;;17.50;;
70337;SDS011;57757;53.198;19.646;2024-01-30T05:58:31;34.70;;;13.70;;
70337;SDS011;57757;53.198;19.646;2024-01-30T06:00:59;35.10;;;11.40;;
70337;SDS011;57757;53.198;19.646;2024-01-30T06:03:27;26.50;;;9.90;;
70337;SDS011;57757;53.198;19.646;2024-01-30T06:05:54;55.90;;;18.40;;
70337;SDS011;57757;53.198;19.646;2024-01-30T06:08:22;58.90;;;17.90;;
70337;SDS011;57757;53.198;19.646;2024-01-30T06:10:49;77.50;;;22.00;;
70337;SDS011;57757;53.198;19.646;2024-01-30T06:13:17;38.20;;;13.60;;
70337;SDS011;57757;53.198;19.646;2024-01-30T06:15:45;29.30;;;10.50;;
70337;SDS011;57757;53.198;19.646;2024-01-30T06:18:13;33.80;;;13.30;;
70337;SDS011;57757;53.198;19.646;2024-01-30T06:20:40;32.00;;;11.50;;
70337;SDS011;57757;53.198;19.646;2024-01-30T06:23:08;29.10;;;10.60;;
70337;SDS011;57757;53.198;19.646;2024-01-30T06:25:36;30.80;;;11.40;;
70337;SDS011;57757;53.198;19.646;2024-01-30T06:28:04;31.00;;;11.60;;
70337;SDS011;57757;53.198;19.646;2024-01-30T06:30:32;30.90;;;11.00;;
70337;SDS011;57757;53.198;19.646;2024-01-30T06:32:59;30.20;;;10.60;;
70337;SDS011;57757;53.198;19.646;2024-01-30T06:35:27;29.80;;;10.80;;
70337;SDS011;57757;53.198;19.646;2024-01-30T06:37:56;30.10;;;11.90;;
70337;SDS011;57757;53.198;19.646;2024-01-30T06:40:24;29.10;;;11.80;;
70337;SDS011;57757;53.198;19.646;2024-01-30T06:42:51;35.30;;;16.00;;
70337;SDS011;57757;53.198;19.646;2024-01-30T06:45:19;59.80;;;24.60;;
70337;SDS011;57757;53.198;19.646;2024-01-30T06:47:47;58.00;;;25.20;;
70337;SDS011;57757;53.198;19.646;2024-01-30T06:50:14;53.30;;;22.00;;
70337;SDS011;57757;53.198;19.646;2024-01-30T06:52:42;53.80;;;22.10;;
70337;SDS011;57757;53.198;19.646;2024-01-30T06:55:09;57.80;;;20.90;;
70337;SDS011;57757;53.198;19.646;2024-01-30T06:57:37;45.30;;;17.40;;
70337;SDS011;57757;53.198;19.646;2024-01-30T07:00:08;47.00;;;18.70;;
70337;SDS011;57757;53.198;19.646;2024-01-30T07:02:36;45.20;;;17.40;;
70337;SDS011;57757;53.198;19.646;2024-01-30T07:05:04;49.70;;;21.10;;
70337;SDS011;57757;53.198;19.646;2024-01-30T07:07:32;48.70;;;22.20;;
70337;SDS011;57757;53.198;19.646;2024-01-30T07:10:00;42.90;;;17.40;;
70337;SDS011;57757;53.198;19.646;2024-01-30T07:12:30;40.30;;;15.30;;
70337;SDS011;57757;53.198;19.646;2024-01-30T07:14:58;37.20;;;13.80;;
70337;SDS011;57757;53.198;19.646;2024-01-30T07:17:27;34.70;;;12.70;;
70337;SDS011;57757;53.198;19.646;2024-01-30T07:19:55;31.50;;;11.20;;
70337;SDS011;57757;53.198;19.646;2024-01-30T07:22:22;37.90;;;13.10;;
70337;SDS011;57757;53.198;19.646;2024-01-30T07:24:50;35.70;;;12.20;;
70337;SDS011;57757;53.198;19.646;2024-01-30T07:27:19;63.60;;;26.00;;
70337;SDS011;57757;53.198;19.646;2024-01-30T07:29:47;132.80;;;60.60;;
70337;SDS011;57757;53.198;19.646;2024-01-30T07:32:14;123.20;;;58.40;;
70337;SDS011;57757;53.198;19.646;2024-01-30T07:34:42;143.10;;;59.30;;
70337;SDS011;57757;53.198;19.646;2024-01-30T07:37:29;96.90;;;36.10;;
70337;SDS011;57757;53.198;19.646;2024-01-30T07:39:57;51.70;;;17.00;;
70337;SDS011;57757;53.198;19.646;2024-01-30T07:42:24;79.20;;;26.60;;
70337;SDS011;57757;53.198;19.646;2024-01-30T07:44:53;53.00;;;23.40;;
70337;SDS011;57757;53.198;19.646;2024-01-30T07:47:20;124.00;;;44.40;;
70337;SDS011;57757;53.198;19.646;2024-01-30T07:49:48;65.00;;;20.40;;
70337;SDS011;57757;53.198;19.646;2024-01-30T07:52:16;45.60;;;16.90;;
70337;SDS011;57757;53.198;19.646;2024-01-30T07:54:47;49.00;;;17.50;;
70337;SDS011;57757;53.198;19.646;2024-01-30T07:57:15;45.40;;;19.30;;
70337;SDS011;57757;53.198;19.646;2024-01-30T07:59:43;55.00;;;23.10;;
70337;SDS011;57757;53.198;19.646;2024-01-30T08:02:12;47.10;;;22.10;;
70337;SDS011;57757;53.198;19.646;2024-01-30T08:04:40;44.10;;;22.90;;
70337;SDS011;57757;53.198;19.646;2024-01-30T08:07:08;38.70;;;14.70;;
70337;SDS011;57757;53.198;19.646;2024-01-30T08:09:36;41.70;;;14.10;;
70337;SDS011;57757;53.198;19.646;2024-01-30T08:12:04;37.80;;;13.60;;
70337;SDS011;57757;53.198;19.646;2024-01-30T08:14:32;35.80;;;14.40;;
70337;SDS011;57757;53.198;19.646;2024-01-30T08:16:59;36.10;;;13.00;;
70337;SDS011;57757;53.198;19.646;2024-01-30T08:19:27;35.50;;;13.70;;
70337;SDS011;57757;53.198;19.646;2024-01-30T08:21:54;43.80;;;15.50;;
70337;SDS011;57757;53.198;19.646;2024-01-30T08:24:23;27.50;;;14.20;;
70337;SDS011;57757;53.198;19.646;2024-01-30T08:26:50;65.30;;;30.10;;
70337;SDS011;57757;53.198;19.646;2024-01-30T08:29:18;62.40;;;20.70;;
70337;SDS011;57757;53.198;19.646;2024-01-30T08:31:45;58.70;;;19.60;;
70337;SDS011;57757;53.198;19.646;2024-01-30T08:34:13;48.10;;;17.90;;
70337;SDS011;57757;53.198;19.646;2024-01-30T08:36:41;47.40;;;16.90;;
70337;SDS011;57757;53.198;19.646;2024-01-30T08:39:08;49.30;;;20.40;;
70337;SDS011;57757;53.198;19.646;2024-01-30T08:41:36;63.70;;;29.70;;
70337;SDS011;57757;53.198;19.646;2024-01-30T08:44:03;78.70;;;36.50;;
70337;SDS011;57757;53.198;19.646;2024-01-30T08:46:32;84.90;;;41.90;;
70337;SDS011;57757;53.198;19.646;2024-01-30T08:48:59;54.50;;;20.70;;
70337;SDS011;57757;53.198;19.646;2024-01-30T08:51:27;107.80;;;35.90;;
70337;SDS011;57757;53.198;19.646;2024-01-30T08:53:55;112.10;;;50.70;;
70337;SDS011;57757;53.198;19.646;2024-01-30T08:56:22;101.90;;;27.90;;
70337;SDS011;57757;53.198;19.646;2024-01-30T08:58:50;97.70;;;27.60;;
70337;SDS011;57757;53.198;19.646;2024-01-30T09:01:18;95.30;;;26.90;;
70337;SDS011;57757;53.198;19.646;2024-01-30T09:03:46;59.80;;;19.20;;
70337;SDS011;57757;53.198;19.646;2024-01-30T09:06:14;59.70;;;20.70;;
70337;SDS011;57757;53.198;19.646;2024-01-30T09:08:42;57.10;;;19.10;;
70337;SDS011;57757;53.198;19.646;2024-01-30T09:11:11;63.30;;;21.40;;
70337;SDS011;57757;53.198;19.646;2024-01-30T09:13:40;42.80;;;15.60;;
70337;SDS011;57757;53.198;19.646;2024-01-30T09:16:08;115.80;;;38.10;;
70337;SDS011;57757;53.198;19.646;2024-01-30T09:18:35;135.20;;;37.80;;
70337;SDS011;57757;53.198;19.646;2024-01-30T09:21:04;72.10;;;21.40;;
70337;SDS011;57757;53.198;19.646;2024-01-30T09:23:32;49.70;;;16.80;;
70337;SDS011;57757;53.198;19.646;2024-01-30T09:25:59;60.80;;;20.90;;
70337;SDS011;57757;53.198;19.646;2024-01-30T09:28:27;47.30;;;17.30;;
70337;SDS011;57757;53.198;19.646;2024-01-30T09:30:55;42.60;;;16.40;;
70337;SDS011;57757;53.198;19.646;2024-01-30T09:33:22;43.80;;;18.40;;
70337;SDS011;57757;53.198;19.646;2024-01-30T09:35:50;49.40;;;19.00;;
70337;SDS011;57757;53.198;19.646;2024-01-30T09:38:18;44.80;;;17.10;;
70337;SDS011;57757;53.198;19.646;2024-01-30T09:40:46;134.10;;;43.70;;
70337;SDS011;57757;53.198;19.646;2024-01-30T09:43:23;102.50;;;34.50;;
70337;SDS011;57757;53.198;19.646;2024-01-30T09:45:54;122.00;;;37.20;;
70337;SDS011;57757;53.198;19.646;2024-01-30T09:48:24;82.30;;;27.70;;
70337;SDS011;57757;53.198;19.646;2024-01-30T09:50:54;250.20;;;76.30;;
70337;SDS011;57757;53.198;19.646;2024-01-30T09:53:22;176.40;;;47.70;;
70337;SDS011;57757;53.198;19.646;2024-01-30T09:55:50;136.60;;;35.70;;
70337;SDS011;57757;53.198;19.646;2024-01-30T09:58:18;105.40;;;31.90;;
70337;SDS011;57757;53.198;19.646;2024-01-30T10:00:46;137.70;;;37.20;;
70337;SDS011;57757;53.198;19.646;2024-01-30T10:03:13;98.00;;;28.40;;
70337;SDS011;57757;53.198;19.646;2024-01-30T10:05:42;62.50;;;21.30;;
70337;SDS011;57757;53.198;19.646;2024-01-30T10:08:19;47.00;;;16.80;;
70337;SDS011;57757;53.198;19.646;2024-01-30T10:10:47;81.00;;;25.00;;
70337;SDS011;57757;53.198;19.646;2024-01-30T10:13:15;113.20;;;32.20;;
70337;SDS011;57757;53.198;19.646;2024-01-30T10:15:43;100.90;;;33.60;;
70337;SDS011;57757;53.198;19.646;2024-01-30T10:18:12;77.70;;;29.20;;
70337;SDS011;57757;53.198;19.646;2024-01-30T10:20:39;44.70;;;18.00;;
70337;SDS011;57757;53.198;19.646;2024-01-30T10:23:07;33.60;;;13.50;;
70337;SDS011;57757;53.198;19.646;2024-01-30T10:25:35;30.20;;;14.10;;
70337;SDS011;57757;53.198;19.646;2024-01-30T10:28:03;37.90;;;14.70;;
70337;SDS011;57757;53.198;19.646;2024-01-30T10:30:31;31.90;;;13.10;;
70337;SDS011;57757;53.198;19.646;2024-01-30T10:32:58;29.40;;;12.00;;
70337;SDS011;57757;53.198;19.646;2024-01-30T10:35:26;30.50;;;12.70;;
70337;SDS011;57757;53.198;19.646;2024-01-30T10:37:54;39.60;;;13.00;;
70337;SDS011;57757;53.198;19.646;2024-01-30T10:40:27;24.40;;;9.30;;
70337;SDS011;57757;53.198;19.646;2024-01-30T10:42:59;21.20;;;8.90;;
70337;SDS011;57757;53.198;19.646;2024-01-30T10:45:32;22.30;;;10.00;;
70337;SDS011;57757;53.198;19.646;2024-01-30T10:48:02;26.20;;;11.80;;
70337;SDS011;57757;53.198;19.646;2024-01-30T10:50:33;23.70;;;10.10;;
70337;SDS011;57757;53.198;19.646;2024-01-30T10:53:11;22.40;;;9.60;;
70337;SDS011;57757;53.198;19.646;2024-01-30T10:55:40;25.20;;;11.40;;
70337;SDS011;57757;53.198;19.646;2024-01-30T10:58:09;25.30;;;12.70;;
70337;SDS011;57757;53.198;19.646;2024-01-30T11:00:39;27.50;;;12.80;;
70337;SDS011;57757;53.198;19.646;2024-01-30T11:03:07;27.80;;;11.10;;
70337;SDS011;57757;53.198;19.646;2024-01-30T11:05:35;30.90;;;13.70;;
70337;SDS011;57757;53.198;19.646;2024-01-30T11:08:11;41.80;;;18.30;;
70337;SDS011;57757;53.198;19.646;2024-01-30T11:10:49;23.80;;;9.60;;
70337;SDS011;57757;53.198;19.646;2024-01-30T11:13:18;38.40;;;18.70;;
70337;SDS011;57757;53.198;19.646;2024-01-30T11:15:47;26.30;;;11.40;;
70337;SDS011;57757;53.198;19.646;2024-01-30T11:20:49;28.80;;;10.40;;
70337;SDS011;57757;53.198;19.646;2024-01-30T11:23:17;23.60;;;10.10;;
70337;SDS011;57757;53.198;19.646;2024-01-30T11:25:44;24.80;;;9.90;;
70337;SDS011;57757;53.198;19.646;2024-01-30T11:28:15;33.00;;;13.80;;
70337;SDS011;57757;53.198;19.646;2024-01-30T11:30:46;21.40;;;10.00;;
70337;SDS011;57757;53.198;19.646;2024-01-30T11:33:16;28.40;;;12.20;;
70337;SDS011;57757;53.198;19.646;2024-01-30T11:36:00;36.50;;;16.00;;
70337;SDS011;57757;53.198;19.646;2024-01-30T11:38:29;26.30;;;12.10;;
70337;SDS011;57757;53.198;19.646;2024-01-30T11:40:57;29.50;;;14.80;;
70337;SDS011;57757;53.198;19.646;2024-01-30T11:43:24;60.50;;;28.30;;
70337;SDS011;57757;53.198;19.646;2024-01-30T11:45:52;59.50;;;25.60;;
70337;SDS011;57757;53.198;19.646;2024-01-30T11:48:20;34.40;;;15.20;;
70337;SDS011;57757;53.198;19.646;2024-01-30T11:50:48;35.60;;;18.30;;
70337;SDS011;57757;53.198;19.646;2024-01-30T11:53:16;33.70;;;16.40;;
70337;SDS011;57757;53.198;19.646;2024-01-30T11:55:49;42.90;;;20.30;;
70337;SDS011;57757;53.198;19.646;2024-01-30T11:58:17;24.90;;;12.20;;
70337;SDS011;57757;53.198;19.646;2024-01-30T12:00:52;28.40;;;12.40;;
70337;SDS011;57757;53.198;19.646;2024-01-30T12:03:21;24.80;;;12.90;;
70337;SDS011;57757;53.198;19.646;2024-01-30T12:08:22;26.00;;;13.90;;
70337;SDS011;57757;53.198;19.646;2024-01-30T12:13:25;29.20;;;12.40;;
70337;SDS011;57757;53.198;19.646;2024-01-30T12:15:59;25.00;;;12.80;;
70337;SDS011;57757;53.198;19.646;2024-01-30T12:18:28;25.00;;;12.20;;
70337;SDS011;57757;53.198;19.646;2024-01-30T12:20:58;26.70;;;11.90;;
70337;SDS011;57757;53.198;19.646;2024-01-30T12:23:27;21.40;;;10.10;;
70337;SDS011;57757;53.198;19.646;2024-01-30T12:25:55;20.90;;;10.30;;
70337;SDS011;57757;53.198;19.646;2024-01-30T12:28:23;28.50;;;14.40;;
70337;SDS011;57757;53.198;19.646;2024-01-30T12:30:55;26.30;;;12.30;;
70337;SDS011;57757;53.198;19.646;2024-01-30T12:33:26;24.80;;;10.20;;
70337;SDS011;57757;53.198;19.646;2024-01-30T12:35:55;38.80;;;15.50;;
70337;SDS011;57757;53.198;19.646;2024-01-30T12:38:30;24.00;;;10.90;;
70337;SDS011;57757;53.198;19.646;2024-01-30T12:40:58;27.50;;;10.80;;
70337;SDS011;57757;53.198;19.646;2024-01-30T12:43:26;24.20;;;11.10;;
70337;SDS011;57757;53.198;19.646;2024-01-30T12:46:05;24.90;;;10.90;;
70337;SDS011;57757;53.198;19.646;2024-01-30T12:48:34;24.90;;;11.60;;
70337;SDS011;57757;53.198;19.646;2024-01-30T12:51:02;30.10;;;11.40;;
70337;SDS011;57757;53.198;19.646;2024-01-30T12:53:29;27.20;;;12.10;;
70337;SDS011;57757;53.198;19.646;2024-01-30T12:55:57;25.50;;;12.50;;
70337;SDS011;57757;53.198;19.646;2024-01-30T12:58:25;20.00;;;9.90;;
70337;SDS011;57757;53.198;19.646;2024-01-30T13:00:53;28.10;;;11.00;;
70337;SDS011;57757;53.198;19.646;2024-01-30T13:03:21;29.40;;;13.00;;
70337;SDS011;57757;53.198;19.646;2024-01-30T13:05:49;28.00;;;11.90;;
70337;SDS011;57757;53.198;19.646;2024-01-30T13:08:17;32.60;;;13.50;;
70337;SDS011;57757;53.198;19.646;2024-01-30T13:10:44;27.70;;;10.60;;
70337;SDS011;57757;53.198;19.646;2024-01-30T13:13:16;23.70;;;10.10;;
70337;SDS011;57757;53.198;19.646;2024-01-30T13:15:47;26.10;;;11.50;;
70337;SDS011;57757;53.198;19.646;2024-01-30T13:18:16;110.20;;;43.60;;
70337;SDS011;57757;53.198;19.646;2024-01-30T13:20:44;61.80;;;31.00;;
70337;SDS011;57757;53.198;19.646;2024-01-30T13:23:11;48.50;;;18.00;;
70337;SDS011;57757;53.198;19.646;2024-01-30T13:25:39;30.50;;;14.00;;
70337;SDS011;57757;53.198;19.646;2024-01-30T13:28:06;23.80;;;11.00;;
70337;SDS011;57757;53.198;19.646;2024-01-30T13:30:34;27.80;;;12.70;;
70337;SDS011;57757;53.198;19.646;2024-01-30T13:33:01;22.60;;;10.80;;
70337;SDS011;57757;53.198;19.646;2024-01-30T13:35:31;41.90;;;18.50;;
70337;SDS011;57757;53.198;19.646;2024-01-30T13:38:01;53.00;;;16.40;;
70337;SDS011;57757;53.198;19.646;2024-01-30T13:40:29;31.30;;;12.80;;
70337;SDS011;57757;53.198;19.646;2024-01-30T13:42:56;72.10;;;30.10;;
70337;SDS011;57757;53.198;19.646;2024-01-30T13:45:25;44.20;;;17.50;;
70337;SDS011;57757;53.198;19.646;2024-01-30T13:47:53;69.80;;;26.10;;
70337;SDS011;57757;53.198;19.646;2024-01-30T13:50:21;66.40;;;29.50;;
70337;SDS011;57757;53.198;19.646;2024-01-30T13:52:49;73.70;;;29.50;;
70337;SDS011;57757;53.198;19.646;2024-01-30T13:55:16;71.60;;;27.30;;
70337;SDS011;57757;53.198;19.646;2024-01-30T13:57:44;44.10;;;17.70;;
70337;SDS011;57757;53.198;19.646;2024-01-30T14:00:13;64.70;;;25.30;;
70337;SDS011;57757;53.198;19.646;2024-01-30T14:02:44;60.90;;;22.90;;
70337;SDS011;57757;53.198;19.646;2024-01-30T14:05:11;46.60;;;18.80;;
70337;SDS011;57757;53.198;19.646;2024-01-30T14:07:39;22.00;;;9.30;;
70337;SDS011;57757;53.198;19.646;2024-01-30T14:10:09;20.60;;;9.60;;
70337;SDS011;57757;53.198;19.646;2024-01-30T14:12:44;31.70;;;14.00;;
70337;SDS011;57757;53.198;19.646;2024-01-30T14:15:12;21.40;;;9.40;;
70337;SDS011;57757;53.198;19.646;2024-01-30T14:17:54;23.40;;;9.10;;
70337;SDS011;57757;53.198;19.646;2024-01-30T14:20:22;18.90;;;9.00;;
70337;SDS011;57757;53.198;19.646;2024-01-30T14:22:50;19.60;;;8.50;;